sensor_id;sensor_type;location;lat;lon;timestamp;P1;durP1;ratioP1;P2;durP2;ratioP2
4676;SDS011;2352;48.180;11.478;2023-06-19T00:02:24;10.13;;;9.15;;
4676;SDS011;2352;48.180;11.478;2023-06-19T00:05:27;9.85;;;9.15;;
4676;SDS011;2352;48.180;11.478;2023-06-19T00:08:30;9.25;;;8.65;;
4676;SDS011;2352;48.180;11.478;2023-06-19T00:11:33;9.30;;;8.63;;
4676;SDS011;2352;48.180;11.478;2023-06-19T00:14:36;8.85;;;8.13;;
4676;SDS011;2352;48.180;11.478;2023-06-19T00:17:40;9.55;;;8.60;;
4676;SDS011;2352;48.180;11.478;2023-06-19T00:20:43;9.20;;;8.70;;
4676;SDS011;2352;48.180;11.478;2023-06-19T00:23:47;10.10;;;9.40;;
4676;SDS011;2352;48.180;11.478;2023-06-19T00:26:50;9.90;;;9.05;;
4676;SDS011;2352;48.180;11.478;2023-06-19T00:29:53;9.38;;;8.48;;
4676;SDS011;2352;48.180;11.478;2023-06-19T00:33:04;9.27;;;8.73;;
4676;SDS011;2352;48.180;11.478;2023-06-19T00:36:08;9.25;;;8.65;;
4676;SDS011;2352;48.180;11.478;2023-06-19T00:39:11;9.65;;;8.85;;
4676;SDS011;2352;48.180;11.478;2023-06-19T00:42:14;9.80;;;9.20;;
4676;SDS011;2352;48.180;11.478;2023-06-19T00:45:17;9.30;;;8.70;;
4676;SDS011;2352;48.180;11.478;2023-06-19T00:48:22;9.20;;;8.60;;
4676;SDS011;2352;48.180;11.478;2023-06-19T00:51:25;9.02;;;8.43;;
4676;SDS011;2352;48.180;11.478;2023-06-19T00:54:27;9.75;;;9.05;;
4676;SDS011;2352;48.180;11.478;2023-06-19T00:57:33;8.32;;;7.82;;
4676;SDS011;2352;48.180;11.478;2023-06-19T01:00:36;8.98;;;8.27;;
4676;SDS011;2352;48.180;11.478;2023-06-19T01:03:41;10.00;;;9.00;;
4676;SDS011;2352;48.180;11.478;2023-06-19T01:06:48;9.15;;;8.55;;
4676;SDS011;2352;48.180;11.478;2023-06-19T01:10:00;9.65;;;8.95;;
4676;SDS011;2352;48.180;11.478;2023-06-19T01:13:08;8.68;;;8.07;;
4676;SDS011;2352;48.180;11.478;2023-06-19T01:16:15;10.18;;;9.40;;
4676;SDS011;2352;48.180;11.478;2023-06-19T01:19:21;9.38;;;8.77;;
4676;SDS011;2352;48.180;11.478;2023-06-19T01:22:26;8.85;;;8.35;;
4676;SDS011;2352;48.180;11.478;2023-06-19T01:25:29;10.15;;;9.35;;
4676;SDS011;2352;48.180;11.478;2023-06-19T01:28:32;9.68;;;8.95;;
4676;SDS011;2352;48.180;11.478;2023-06-19T01:31:36;10.30;;;9.63;;
4676;SDS011;2352;48.180;11.478;2023-06-19T01:34:45;9.35;;;8.80;;
4676;SDS011;2352;48.180;11.478;2023-06-19T01:37:50;9.05;;;8.45;;
4676;SDS011;2352;48.180;11.478;2023-06-19T01:40:55;9.77;;;9.18;;
4676;SDS011;2352;48.180;11.478;2023-06-19T01:44:00;9.45;;;8.85;;
4676;SDS011;2352;48.180;11.478;2023-06-19T01:47:07;9.52;;;8.93;;
4676;SDS011;2352;48.180;11.478;2023-06-19T01:50:11;10.00;;;9.23;;
4676;SDS011;2352;48.180;11.478;2023-06-19T01:53:15;8.85;;;8.25;;
4676;SDS011;2352;48.180;11.478;2023-06-19T01:56:18;8.98;;;8.38;;
4676;SDS011;2352;48.180;11.478;2023-06-19T01:59:21;9.27;;;8.68;;
4676;SDS011;2352;48.180;11.478;2023-06-19T02:02:24;10.27;;;9.57;;
4676;SDS011;2352;48.180;11.478;2023-06-19T02:05:27;9.63;;;9.02;;
4676;SDS011;2352;48.180;11.478;2023-06-19T02:08:32;10.02;;;9.38;;
4676;SDS011;2352;48.180;11.478;2023-06-19T02:11:34;9.20;;;8.65;;
4676;SDS011;2352;48.180;11.478;2023-06-19T02:14:37;9.05;;;8.45;;
4676;SDS011;2352;48.180;11.478;2023-06-19T02:17:40;10.23;;;9.43;;
4676;SDS011;2352;48.180;11.478;2023-06-19T02:20:44;8.95;;;8.38;;
4676;SDS011;2352;48.180;11.478;2023-06-19T02:23:48;8.90;;;8.30;;
4676;SDS011;2352;48.180;11.478;2023-06-19T02:26:51;9.63;;;8.93;;
4676;SDS011;2352;48.180;11.478;2023-06-19T02:29:54;8.98;;;8.27;;
4676;SDS011;2352;48.180;11.478;2023-06-19T02:32:57;10.52;;;9.77;;
4676;SDS011;2352;48.180;11.478;2023-06-19T02:36:00;9.45;;;8.85;;
4676;SDS011;2352;48.180;11.478;2023-06-19T02:39:04;10.10;;;9.43;;
4676;SDS011;2352;48.180;11.478;2023-06-19T02:42:08;9.18;;;8.68;;
4676;SDS011;2352;48.180;11.478;2023-06-19T02:45:11;9.48;;;8.70;;
4676;SDS011;2352;48.180;11.478;2023-06-19T02:48:14;10.35;;;9.35;;
4676;SDS011;2352;48.180;11.478;2023-06-19T02:51:17;9.93;;;9.15;;
4676;SDS011;2352;48.180;11.478;2023-06-19T02:54:21;9.38;;;8.77;;
4676;SDS011;2352;48.180;11.478;2023-06-19T02:57:24;8.73;;;7.95;;
4676;SDS011;2352;48.180;11.478;2023-06-19T03:00:27;9.23;;;8.63;;
4676;SDS011;2352;48.180;11.478;2023-06-19T03:03:30;9.20;;;8.45;;
4676;SDS011;2352;48.180;11.478;2023-06-19T03:06:33;9.40;;;8.88;;
4676;SDS011;2352;48.180;11.478;2023-06-19T03:09:42;9.60;;;8.93;;
4676;SDS011;2352;48.180;11.478;2023-06-19T03:12:45;9.88;;;9.20;;
4676;SDS011;2352;48.180;11.478;2023-06-19T03:15:47;9.52;;;8.93;;
4676;SDS011;2352;48.180;11.478;2023-06-19T03:18:50;9.07;;;8.55;;
4676;SDS011;2352;48.180;11.478;2023-06-19T03:21:53;9.38;;;8.75;;
4676;SDS011;2352;48.180;11.478;2023-06-19T03:24:58;10.20;;;9.45;;
4676;SDS011;2352;48.180;11.478;2023-06-19T03:28:01;9.60;;;8.95;;
4676;SDS011;2352;48.180;11.478;2023-06-19T03:31:04;10.00;;;9.10;;
4676;SDS011;2352;48.180;11.478;2023-06-19T03:34:07;9.63;;;8.82;;
4676;SDS011;2352;48.180;11.478;2023-06-19T03:37:09;9.90;;;8.60;;
4676;SDS011;2352;48.180;11.478;2023-06-19T03:40:15;10.35;;;9.48;;
4676;SDS011;2352;48.180;11.478;2023-06-19T03:43:17;10.50;;;9.73;;
4676;SDS011;2352;48.180;11.478;2023-06-19T03:46:20;9.38;;;8.77;;
4676;SDS011;2352;48.180;11.478;2023-06-19T03:49:23;10.50;;;9.70;;
4676;SDS011;2352;48.180;11.478;2023-06-19T03:52:26;9.68;;;9.00;;
4676;SDS011;2352;48.180;11.478;2023-06-19T03:55:31;10.02;;;9.20;;
4676;SDS011;2352;48.180;11.478;2023-06-19T03:58:34;10.25;;;9.57;;
4676;SDS011;2352;48.180;11.478;2023-06-19T04:01:37;9.90;;;9.30;;
4676;SDS011;2352;48.180;11.478;2023-06-19T04:04:40;10.85;;;10.15;;
4676;SDS011;2352;48.180;11.478;2023-06-19T04:07:43;10.20;;;9.57;;
4676;SDS011;2352;48.180;11.478;2023-06-19T04:10:47;9.80;;;9.20;;
4676;SDS011;2352;48.180;11.478;2023-06-19T04:13:50;10.57;;;9.85;;
4676;SDS011;2352;48.180;11.478;2023-06-19T04:16:53;11.52;;;10.73;;
4676;SDS011;2352;48.180;11.478;2023-06-19T04:19:55;9.80;;;9.20;;
4676;SDS011;2352;48.180;11.478;2023-06-19T04:22:58;10.30;;;9.60;;
4676;SDS011;2352;48.180;11.478;2023-06-19T04:26:02;11.30;;;10.63;;
4676;SDS011;2352;48.180;11.478;2023-06-19T04:29:05;9.93;;;9.32;;
4676;SDS011;2352;48.180;11.478;2023-06-19T04:32:08;9.43;;;8.80;;
4676;SDS011;2352;48.180;11.478;2023-06-19T04:35:13;11.50;;;10.52;;
4676;SDS011;2352;48.180;11.478;2023-06-19T04:38:16;10.30;;;9.70;;
4676;SDS011;2352;48.180;11.478;2023-06-19T04:41:20;11.85;;;10.95;;
4676;SDS011;2352;48.180;11.478;2023-06-19T04:44:23;13.45;;;10.63;;
4676;SDS011;2352;48.180;11.478;2023-06-19T04:47:26;10.80;;;10.13;;
4676;SDS011;2352;48.180;11.478;2023-06-19T04:50:44;10.98;;;10.27;;
4676;SDS011;2352;48.180;11.478;2023-06-19T04:53:47;10.85;;;10.00;;
4676;SDS011;2352;48.180;11.478;2023-06-19T04:56:51;13.02;;;11.75;;
4676;SDS011;2352;48.180;11.478;2023-06-19T04:59:55;11.75;;;10.73;;
4676;SDS011;2352;48.180;11.478;2023-06-19T05:02:57;12.75;;;10.93;;
4676;SDS011;2352;48.180;11.478;2023-06-19T05:06:02;12.07;;;11.27;;
4676;SDS011;2352;48.180;11.478;2023-06-19T05:09:05;11.38;;;9.90;;
4676;SDS011;2352;48.180;11.478;2023-06-19T05:12:09;11.95;;;11.02;;
4676;SDS011;2352;48.180;11.478;2023-06-19T05:15:13;12.23;;;11.32;;
4676;SDS011;2352;48.180;11.478;2023-06-19T05:18:16;10.85;;;9.98;;
4676;SDS011;2352;48.180;11.478;2023-06-19T05:21:19;10.88;;;9.90;;
4676;SDS011;2352;48.180;11.478;2023-06-19T05:24:22;9.75;;;9.15;;
4676;SDS011;2352;48.180;11.478;2023-06-19T05:27:26;12.93;;;9.70;;
4676;SDS011;2352;48.180;11.478;2023-06-19T05:30:29;10.27;;;9.35;;
4676;SDS011;2352;48.180;11.478;2023-06-19T05:33:32;10.10;;;9.15;;
4676;SDS011;2352;48.180;11.478;2023-06-19T05:36:35;9.23;;;8.63;;
4676;SDS011;2352;48.180;11.478;2023-06-19T05:39:37;8.95;;;8.15;;
4676;SDS011;2352;48.180;11.478;2023-06-19T05:42:42;7.88;;;7.03;;
4676;SDS011;2352;48.180;11.478;2023-06-19T05:45:45;8.38;;;7.78;;
4676;SDS011;2352;48.180;11.478;2023-06-19T05:48:48;8.20;;;7.43;;
4676;SDS011;2352;48.180;11.478;2023-06-19T05:51:51;8.18;;;7.43;;
4676;SDS011;2352;48.180;11.478;2023-06-19T05:54:53;8.38;;;7.68;;
4676;SDS011;2352;48.180;11.478;2023-06-19T05:57:58;7.88;;;7.38;;
4676;SDS011;2352;48.180;11.478;2023-06-19T06:01:01;7.40;;;6.78;;
4676;SDS011;2352;48.180;11.478;2023-06-19T06:04:04;8.13;;;7.57;;
4676;SDS011;2352;48.180;11.478;2023-06-19T06:07:07;8.35;;;7.57;;
4676;SDS011;2352;48.180;11.478;2023-06-19T06:10:10;8.75;;;8.13;;
4676;SDS011;2352;48.180;11.478;2023-06-19T06:13:14;8.52;;;7.75;;
4676;SDS011;2352;48.180;11.478;2023-06-19T06:16:17;8.90;;;8.02;;
4676;SDS011;2352;48.180;11.478;2023-06-19T06:19:20;7.85;;;7.35;;
4676;SDS011;2352;48.180;11.478;2023-06-19T06:22:23;7.90;;;7.30;;
4676;SDS011;2352;48.180;11.478;2023-06-19T06:25:26;6.90;;;6.40;;
4676;SDS011;2352;48.180;11.478;2023-06-19T06:28:31;8.38;;;7.63;;
4676;SDS011;2352;48.180;11.478;2023-06-19T06:31:33;6.55;;;6.15;;
4676;SDS011;2352;48.180;11.478;2023-06-19T06:34:36;7.82;;;7.32;;
4676;SDS011;2352;48.180;11.478;2023-06-19T06:37:39;7.68;;;7.18;;
4676;SDS011;2352;48.180;11.478;2023-06-19T06:40:42;7.18;;;6.65;;
4676;SDS011;2352;48.180;11.478;2023-06-19T06:43:46;7.28;;;6.68;;
4676;SDS011;2352;48.180;11.478;2023-06-19T06:46:49;8.00;;;7.38;;
4676;SDS011;2352;48.180;11.478;2023-06-19T06:49:52;8.48;;;6.93;;
4676;SDS011;2352;48.180;11.478;2023-06-19T06:52:55;7.43;;;6.82;;
4676;SDS011;2352;48.180;11.478;2023-06-19T06:55:58;6.70;;;6.30;;
4676;SDS011;2352;48.180;11.478;2023-06-19T06:59:03;7.78;;;7.13;;
4676;SDS011;2352;48.180;11.478;2023-06-19T07:02:06;6.97;;;6.57;;
4676;SDS011;2352;48.180;11.478;2023-06-19T07:05:09;6.22;;;5.93;;
4676;SDS011;2352;48.180;11.478;2023-06-19T07:08:12;7.28;;;6.78;;
4676;SDS011;2352;48.180;11.478;2023-06-19T07:11:15;6.75;;;6.28;;
4676;SDS011;2352;48.180;11.478;2023-06-19T07:14:19;6.63;;;6.22;;
4676;SDS011;2352;48.180;11.478;2023-06-19T07:17:22;6.88;;;6.32;;
4676;SDS011;2352;48.180;11.478;2023-06-19T07:20:25;7.55;;;6.95;;
4676;SDS011;2352;48.180;11.478;2023-06-19T07:23:28;9.13;;;6.22;;
4676;SDS011;2352;48.180;11.478;2023-06-19T07:26:31;6.95;;;6.45;;
4676;SDS011;2352;48.180;11.478;2023-06-19T07:29:35;6.45;;;6.05;;
4676;SDS011;2352;48.180;11.478;2023-06-19T07:32:38;6.07;;;5.68;;
4676;SDS011;2352;48.180;11.478;2023-06-19T07:35:42;6.60;;;6.18;;
4676;SDS011;2352;48.180;11.478;2023-06-19T07:38:45;6.43;;;6.00;;
4676;SDS011;2352;48.180;11.478;2023-06-19T07:41:48;5.55;;;5.22;;
4676;SDS011;2352;48.180;11.478;2023-06-19T07:44:52;5.72;;;5.43;;
4676;SDS011;2352;48.180;11.478;2023-06-19T07:47:55;5.57;;;5.07;;
4676;SDS011;2352;48.180;11.478;2023-06-19T07:50:59;5.60;;;5.10;;
4676;SDS011;2352;48.180;11.478;2023-06-19T07:54:02;5.20;;;4.85;;
4676;SDS011;2352;48.180;11.478;2023-06-19T07:57:05;5.63;;;5.28;;
4676;SDS011;2352;48.180;11.478;2023-06-19T08:00:11;6.75;;;6.25;;
4676;SDS011;2352;48.180;11.478;2023-06-19T08:03:15;5.97;;;5.68;;
4676;SDS011;2352;48.180;11.478;2023-06-19T08:06:18;8.15;;;5.72;;
4676;SDS011;2352;48.180;11.478;2023-06-19T08:09:21;6.13;;;5.80;;
4676;SDS011;2352;48.180;11.478;2023-06-19T08:12:24;5.57;;;5.28;;
4676;SDS011;2352;48.180;11.478;2023-06-19T08:15:28;4.97;;;4.57;;
4676;SDS011;2352;48.180;11.478;2023-06-19T08:18:31;4.78;;;4.47;;
4676;SDS011;2352;48.180;11.478;2023-06-19T08:21:34;5.72;;;5.43;;
4676;SDS011;2352;48.180;11.478;2023-06-19T08:24:37;6.25;;;5.85;;
4676;SDS011;2352;48.180;11.478;2023-06-19T08:27:42;5.40;;;5.10;;
4676;SDS011;2352;48.180;11.478;2023-06-19T08:30:47;5.15;;;4.78;;
4676;SDS011;2352;48.180;11.478;2023-06-19T08:33:50;6.85;;;4.43;;
4676;SDS011;2352;48.180;11.478;2023-06-19T08:36:55;5.82;;;5.30;;
4676;SDS011;2352;48.180;11.478;2023-06-19T08:39:58;4.35;;;4.07;;
4676;SDS011;2352;48.180;11.478;2023-06-19T08:43:01;4.10;;;3.90;;
4676;SDS011;2352;48.180;11.478;2023-06-19T08:46:09;2.53;;;2.40;;
4676;SDS011;2352;48.180;11.478;2023-06-19T08:49:13;2.15;;;2.05;;
4676;SDS011;2352;48.180;11.478;2023-06-19T08:52:15;4.00;;;2.85;;
4676;SDS011;2352;48.180;11.478;2023-06-19T08:55:19;2.85;;;2.70;;
4676;SDS011;2352;48.180;11.478;2023-06-19T08:58:22;4.93;;;3.45;;
4676;SDS011;2352;48.180;11.478;2023-06-19T09:01:26;3.22;;;3.03;;
4676;SDS011;2352;48.180;11.478;2023-06-19T09:04:29;4.72;;;3.72;;
4676;SDS011;2352;48.180;11.478;2023-06-19T09:07:32;3.90;;;3.60;;
4676;SDS011;2352;48.180;11.478;2023-06-19T09:10:36;4.60;;;4.40;;
4676;SDS011;2352;48.180;11.478;2023-06-19T09:13:39;4.22;;;4.03;;
4676;SDS011;2352;48.180;11.478;2023-06-19T09:16:43;4.95;;;4.55;;
4676;SDS011;2352;48.180;11.478;2023-06-19T09:19:49;4.65;;;4.35;;
4676;SDS011;2352;48.180;11.478;2023-06-19T09:22:54;5.00;;;4.65;;
4676;SDS011;2352;48.180;11.478;2023-06-19T09:25:57;5.13;;;4.75;;
4676;SDS011;2352;48.180;11.478;2023-06-19T09:29:10;5.05;;;4.75;;
4676;SDS011;2352;48.180;11.478;2023-06-19T09:32:19;6.28;;;5.85;;
4676;SDS011;2352;48.180;11.478;2023-06-19T09:35:23;5.95;;;5.20;;
4676;SDS011;2352;48.180;11.478;2023-06-19T09:38:26;5.55;;;4.85;;
4676;SDS011;2352;48.180;11.478;2023-06-19T09:41:31;4.82;;;4.53;;
4676;SDS011;2352;48.180;11.478;2023-06-19T09:44:39;4.97;;;4.68;;
4676;SDS011;2352;48.180;11.478;2023-06-19T09:47:48;4.68;;;4.40;;
4676;SDS011;2352;48.180;11.478;2023-06-19T09:50:58;5.25;;;4.95;;
4676;SDS011;2352;48.180;11.478;2023-06-19T09:54:04;6.22;;;5.82;;
4676;SDS011;2352;48.180;11.478;2023-06-19T09:57:08;4.88;;;4.53;;
4676;SDS011;2352;48.180;11.478;2023-06-19T10:00:13;5.28;;;4.97;;
4676;SDS011;2352;48.180;11.478;2023-06-19T10:03:30;4.47;;;4.28;;
4676;SDS011;2352;48.180;11.478;2023-06-19T10:06:42;8.05;;;4.65;;
4676;SDS011;2352;48.180;11.478;2023-06-19T10:09:55;4.63;;;4.32;;
4676;SDS011;2352;48.180;11.478;2023-06-19T10:12:59;4.57;;;4.28;;
4676;SDS011;2352;48.180;11.478;2023-06-19T10:16:03;3.50;;;3.30;;
4676;SDS011;2352;48.180;11.478;2023-06-19T10:19:13;3.67;;;3.45;;
4676;SDS011;2352;48.180;11.478;2023-06-19T10:22:19;3.42;;;3.22;;
4676;SDS011;2352;48.180;11.478;2023-06-19T10:25:23;3.03;;;2.85;;
4676;SDS011;2352;48.180;11.478;2023-06-19T10:28:27;3.95;;;3.75;;
4676;SDS011;2352;48.180;11.478;2023-06-19T10:31:31;3.70;;;3.50;;
4676;SDS011;2352;48.180;11.478;2023-06-19T10:34:36;4.68;;;4.38;;
4676;SDS011;2352;48.180;11.478;2023-06-19T10:37:39;3.65;;;3.45;;
4676;SDS011;2352;48.180;11.478;2023-06-19T10:40:43;3.80;;;3.60;;
4676;SDS011;2352;48.180;11.478;2023-06-19T10:43:52;3.60;;;3.40;;
4676;SDS011;2352;48.180;11.478;2023-06-19T10:46:55;3.58;;;3.38;;
4676;SDS011;2352;48.180;11.478;2023-06-19T10:50:00;3.65;;;3.42;;
4676;SDS011;2352;48.180;11.478;2023-06-19T10:53:04;3.22;;;3.03;;
4676;SDS011;2352;48.180;11.478;2023-06-19T10:56:08;2.80;;;2.70;;
4676;SDS011;2352;48.180;11.478;2023-06-19T10:59:11;2.88;;;2.70;;
4676;SDS011;2352;48.180;11.478;2023-06-19T11:02:17;3.17;;;2.88;;
4676;SDS011;2352;48.180;11.478;2023-06-19T11:05:22;3.00;;;2.90;;
4676;SDS011;2352;48.180;11.478;2023-06-19T11:08:26;4.05;;;2.20;;
4676;SDS011;2352;48.180;11.478;2023-06-19T11:11:36;2.97;;;2.78;;
4676;SDS011;2352;48.180;11.478;2023-06-19T11:14:39;3.10;;;2.97;;
4676;SDS011;2352;48.180;11.478;2023-06-19T11:17:43;2.78;;;2.58;;
4676;SDS011;2352;48.180;11.478;2023-06-19T11:20:49;2.55;;;2.45;;
4676;SDS011;2352;48.180;11.478;2023-06-19T11:23:52;3.03;;;2.83;;
4676;SDS011;2352;48.180;11.478;2023-06-19T11:26:56;2.17;;;2.08;;
4676;SDS011;2352;48.180;11.478;2023-06-19T11:30:00;3.30;;;3.00;;
4676;SDS011;2352;48.180;11.478;2023-06-19T11:33:14;4.65;;;3.08;;
4676;SDS011;2352;48.180;11.478;2023-06-19T11:36:19;4.97;;;2.83;;
4676;SDS011;2352;48.180;11.478;2023-06-19T11:39:22;2.47;;;2.35;;
4676;SDS011;2352;48.180;11.478;2023-06-19T11:42:25;3.08;;;2.88;;
4676;SDS011;2352;48.180;11.478;2023-06-19T11:45:29;3.13;;;2.92;;
4676;SDS011;2352;48.180;11.478;2023-06-19T11:48:35;3.03;;;2.83;;
4676;SDS011;2352;48.180;11.478;2023-06-19T11:51:41;3.30;;;3.10;;
4676;SDS011;2352;48.180;11.478;2023-06-19T11:54:44;2.83;;;2.72;;
4676;SDS011;2352;48.180;11.478;2023-06-19T11:57:47;2.30;;;2.20;;
4676;SDS011;2352;48.180;11.478;2023-06-19T12:00:50;2.88;;;2.67;;
4676;SDS011;2352;48.180;11.478;2023-06-19T12:03:54;2.85;;;2.13;;
4676;SDS011;2352;48.180;11.478;2023-06-19T12:06:59;3.70;;;3.15;;
4676;SDS011;2352;48.180;11.478;2023-06-19T12:10:02;2.90;;;2.70;;
4676;SDS011;2352;48.180;11.478;2023-06-19T12:13:11;2.55;;;2.45;;
4676;SDS011;2352;48.180;11.478;2023-06-19T12:16:14;3.20;;;3.00;;
4676;SDS011;2352;48.180;11.478;2023-06-19T12:19:18;2.60;;;2.50;;
4676;SDS011;2352;48.180;11.478;2023-06-19T12:22:23;5.25;;;2.63;;
4676;SDS011;2352;48.180;11.478;2023-06-19T12:25:26;2.67;;;2.58;;
4676;SDS011;2352;48.180;11.478;2023-06-19T12:28:29;2.53;;;2.35;;
4676;SDS011;2352;48.180;11.478;2023-06-19T12:31:33;2.78;;;2.60;;
4676;SDS011;2352;48.180;11.478;2023-06-19T12:34:37;3.58;;;2.45;;
4676;SDS011;2352;48.180;11.478;2023-06-19T12:37:41;2.42;;;2.20;;
4676;SDS011;2352;48.180;11.478;2023-06-19T12:40:45;2.50;;;2.40;;
4676;SDS011;2352;48.180;11.478;2023-06-19T12:43:48;7.22;;;2.63;;
4676;SDS011;2352;48.180;11.478;2023-06-19T12:46:52;2.50;;;2.40;;
4676;SDS011;2352;48.180;11.478;2023-06-19T12:49:55;2.72;;;2.63;;
4676;SDS011;2352;48.180;11.478;2023-06-19T12:53:00;3.25;;;3.05;;
4676;SDS011;2352;48.180;11.478;2023-06-19T12:56:04;3.22;;;3.05;;
4676;SDS011;2352;48.180;11.478;2023-06-19T12:59:13;2.50;;;2.40;;
4676;SDS011;2352;48.180;11.478;2023-06-19T13:02:16;3.58;;;3.28;;
4676;SDS011;2352;48.180;11.478;2023-06-19T13:05:20;3.17;;;2.97;;
4676;SDS011;2352;48.180;11.478;2023-06-19T13:08:24;3.47;;;3.28;;
4676;SDS011;2352;48.180;11.478;2023-06-19T13:11:28;3.10;;;2.72;;
4676;SDS011;2352;48.180;11.478;2023-06-19T13:14:31;2.83;;;2.63;;
4676;SDS011;2352;48.180;11.478;2023-06-19T13:17:35;2.60;;;2.50;;
4676;SDS011;2352;48.180;11.478;2023-06-19T13:20:38;2.85;;;2.65;;
4676;SDS011;2352;48.180;11.478;2023-06-19T13:23:43;2.90;;;2.70;;
4676;SDS011;2352;48.180;11.478;2023-06-19T13:26:46;2.50;;;2.40;;
4676;SDS011;2352;48.180;11.478;2023-06-19T13:29:50;4.93;;;2.05;;
4676;SDS011;2352;48.180;11.478;2023-06-19T13:32:53;2.60;;;2.40;;
4676;SDS011;2352;48.180;11.478;2023-06-19T13:35:57;2.83;;;2.63;;
4676;SDS011;2352;48.180;11.478;2023-06-19T13:39:01;2.67;;;2.58;;
4676;SDS011;2352;48.180;11.478;2023-06-19T13:42:05;2.78;;;2.60;;
4676;SDS011;2352;48.180;11.478;2023-06-19T13:45:09;3.38;;;3.17;;
4676;SDS011;2352;48.180;11.478;2023-06-19T13:48:13;3.50;;;3.30;;
4676;SDS011;2352;48.180;11.478;2023-06-19T13:51:16;2.90;;;2.75;;
4676;SDS011;2352;48.180;11.478;2023-06-19T13:54:21;2.90;;;2.80;;
4676;SDS011;2352;48.180;11.478;2023-06-19T13:57:24;2.90;;;2.78;;
4676;SDS011;2352;48.180;11.478;2023-06-19T14:00:28;3.25;;;3.05;;
4676;SDS011;2352;48.180;11.478;2023-06-19T14:03:32;3.33;;;3.13;;
4676;SDS011;2352;48.180;11.478;2023-06-19T14:06:35;3.63;;;3.42;;
4676;SDS011;2352;48.180;11.478;2023-06-19T14:09:41;3.17;;;3.00;;
4676;SDS011;2352;48.180;11.478;2023-06-19T14:12:44;3.38;;;3.08;;
4676;SDS011;2352;48.180;11.478;2023-06-19T14:15:47;3.25;;;3.08;;
4676;SDS011;2352;48.180;11.478;2023-06-19T14:18:51;2.90;;;2.80;;
4676;SDS011;2352;48.180;11.478;2023-06-19T14:21:54;3.60;;;3.40;;
4676;SDS011;2352;48.180;11.478;2023-06-19T14:24:59;3.33;;;3.13;;
4676;SDS011;2352;48.180;11.478;2023-06-19T14:28:03;3.17;;;2.88;;
4676;SDS011;2352;48.180;11.478;2023-06-19T14:31:06;3.28;;;3.08;;
4676;SDS011;2352;48.180;11.478;2023-06-19T14:34:10;3.35;;;3.15;;
4676;SDS011;2352;48.180;11.478;2023-06-19T14:37:13;2.95;;;2.85;;
4676;SDS011;2352;48.180;11.478;2023-06-19T14:40:18;3.28;;;3.08;;
4676;SDS011;2352;48.180;11.478;2023-06-19T14:43:21;3.53;;;3.33;;
4676;SDS011;2352;48.180;11.478;2023-06-19T14:46:24;3.17;;;2.83;;
4676;SDS011;2352;48.180;11.478;2023-06-19T14:49:39;2.95;;;2.85;;
4676;SDS011;2352;48.180;11.478;2023-06-19T14:52:43;2.90;;;2.80;;
4676;SDS011;2352;48.180;11.478;2023-06-19T14:55:47;3.78;;;3.47;;
4676;SDS011;2352;48.180;11.478;2023-06-19T14:58:51;3.25;;;3.05;;
4676;SDS011;2352;48.180;11.478;2023-06-19T15:01:54;3.83;;;3.53;;
4676;SDS011;2352;48.180;11.478;2023-06-19T15:04:57;3.33;;;3.03;;
4676;SDS011;2352;48.180;11.478;2023-06-19T15:08:07;3.20;;;2.92;;
4676;SDS011;2352;48.180;11.478;2023-06-19T15:11:12;3.20;;;3.10;;
4676;SDS011;2352;48.180;11.478;2023-06-19T15:14:16;3.38;;;3.17;;
4676;SDS011;2352;48.180;11.478;2023-06-19T15:17:19;3.50;;;3.25;;
4676;SDS011;2352;48.180;11.478;2023-06-19T15:20:22;3.45;;;3.17;;
4676;SDS011;2352;48.180;11.478;2023-06-19T15:23:26;4.60;;;3.17;;
4676;SDS011;2352;48.180;11.478;2023-06-19T15:26:31;3.65;;;3.22;;
4676;SDS011;2352;48.180;11.478;2023-06-19T15:29:34;5.50;;;3.72;;
4676;SDS011;2352;48.180;11.478;2023-06-19T15:32:37;3.47;;;3.28;;
4676;SDS011;2352;48.180;11.478;2023-06-19T15:35:41;3.22;;;3.03;;
4676;SDS011;2352;48.180;11.478;2023-06-19T15:38:44;3.53;;;3.22;;
4676;SDS011;2352;48.180;11.478;2023-06-19T15:41:49;3.72;;;3.13;;
4676;SDS011;2352;48.180;11.478;2023-06-19T15:44:52;4.10;;;3.90;;
4676;SDS011;2352;48.180;11.478;2023-06-19T15:47:55;3.63;;;3.42;;
4676;SDS011;2352;48.180;11.478;2023-06-19T15:50:59;4.00;;;3.78;;
4676;SDS011;2352;48.180;11.478;2023-06-19T15:54:02;3.42;;;3.22;;
4676;SDS011;2352;48.180;11.478;2023-06-19T15:57:07;3.83;;;3.63;;
4676;SDS011;2352;48.180;11.478;2023-06-19T16:00:11;4.22;;;3.88;;
4676;SDS011;2352;48.180;11.478;2023-06-19T16:03:15;3.78;;;3.58;;
4676;SDS011;2352;48.180;11.478;2023-06-19T16:06:18;3.50;;;3.30;;
4676;SDS011;2352;48.180;11.478;2023-06-19T16:09:21;3.58;;;3.38;;
4676;SDS011;2352;48.180;11.478;2023-06-19T16:12:29;4.07;;;3.50;;
4676;SDS011;2352;48.180;11.478;2023-06-19T16:15:32;4.05;;;3.55;;
4676;SDS011;2352;48.180;11.478;2023-06-19T16:18:36;4.07;;;3.88;;
4676;SDS011;2352;48.180;11.478;2023-06-19T16:21:39;3.42;;;3.22;;
4676;SDS011;2352;48.180;11.478;2023-06-19T16:24:43;3.38;;;3.13;;
4676;SDS011;2352;48.180;11.478;2023-06-19T16:27:47;3.75;;;3.55;;
4676;SDS011;2352;48.180;11.478;2023-06-19T16:30:50;3.63;;;3.42;;
4676;SDS011;2352;48.180;11.478;2023-06-19T16:33:54;4.00;;;3.80;;
4676;SDS011;2352;48.180;11.478;2023-06-19T16:36:58;3.65;;;3.33;;
4676;SDS011;2352;48.180;11.478;2023-06-19T16:40:01;3.58;;;3.20;;
4676;SDS011;2352;48.180;11.478;2023-06-19T16:43:08;4.53;;;3.88;;
4676;SDS011;2352;48.180;11.478;2023-06-19T16:46:12;3.85;;;3.55;;
4676;SDS011;2352;48.180;11.478;2023-06-19T16:49:15;3.55;;;3.35;;
4676;SDS011;2352;48.180;11.478;2023-06-19T16:52:18;4.18;;;3.83;;
4676;SDS011;2352;48.180;11.478;2023-06-19T16:55:23;4.82;;;4.53;;
4676;SDS011;2352;48.180;11.478;2023-06-19T16:58:28;3.30;;;3.10;;
4676;SDS011;2352;48.180;11.478;2023-06-19T17:01:31;5.22;;;4.00;;
4676;SDS011;2352;48.180;11.478;2023-06-19T17:04:35;3.90;;;3.70;;
4676;SDS011;2352;48.180;11.478;2023-06-19T17:07:39;4.15;;;3.90;;
4676;SDS011;2352;48.180;11.478;2023-06-19T17:10:42;4.00;;;3.80;;
4676;SDS011;2352;48.180;11.478;2023-06-19T17:13:47;4.50;;;4.20;;
4676;SDS011;2352;48.180;11.478;2023-06-19T17:16:50;4.80;;;4.45;;
4676;SDS011;2352;48.180;11.478;2023-06-19T17:19:55;4.97;;;4.68;;
4676;SDS011;2352;48.180;11.478;2023-06-19T17:22:59;4.35;;;4.05;;
4676;SDS011;2352;48.180;11.478;2023-06-19T17:26:02;4.70;;;4.30;;
4676;SDS011;2352;48.180;11.478;2023-06-19T17:29:07;6.68;;;4.50;;
4676;SDS011;2352;48.180;11.478;2023-06-19T17:32:10;4.32;;;4.03;;
4676;SDS011;2352;48.180;11.478;2023-06-19T17:35:13;4.20;;;3.95;;
4676;SDS011;2352;48.180;11.478;2023-06-19T17:38:18;4.45;;;4.15;;
4676;SDS011;2352;48.180;11.478;2023-06-19T17:41:22;4.95;;;4.65;;
4676;SDS011;2352;48.180;11.478;2023-06-19T17:44:27;4.60;;;4.30;;
4676;SDS011;2352;48.180;11.478;2023-06-19T17:47:31;4.05;;;3.85;;
4676;SDS011;2352;48.180;11.478;2023-06-19T17:50:35;5.75;;;4.63;;
4676;SDS011;2352;48.180;11.478;2023-06-19T17:53:38;4.22;;;3.88;;
4676;SDS011;2352;48.180;11.478;2023-06-19T17:56:41;4.40;;;4.10;;
4676;SDS011;2352;48.180;11.478;2023-06-19T17:59:47;4.40;;;4.20;;
4676;SDS011;2352;48.180;11.478;2023-06-19T18:02:50;3.95;;;3.75;;
4676;SDS011;2352;48.180;11.478;2023-06-19T18:05:54;10.02;;;4.20;;
4676;SDS011;2352;48.180;11.478;2023-06-19T18:08:57;3.97;;;3.67;;
4676;SDS011;2352;48.180;11.478;2023-06-19T18:12:00;4.38;;;4.18;;
4676;SDS011;2352;48.180;11.478;2023-06-19T18:15:06;4.53;;;4.25;;
4676;SDS011;2352;48.180;11.478;2023-06-19T18:18:10;4.25;;;4.05;;
4676;SDS011;2352;48.180;11.478;2023-06-19T18:21:13;4.38;;;4.13;;
4676;SDS011;2352;48.180;11.478;2023-06-19T18:24:17;4.35;;;4.05;;
4676;SDS011;2352;48.180;11.478;2023-06-19T18:27:20;5.18;;;4.78;;
4676;SDS011;2352;48.180;11.478;2023-06-19T18:30:25;4.63;;;4.32;;
4676;SDS011;2352;48.180;11.478;2023-06-19T18:33:29;4.10;;;3.90;;
4676;SDS011;2352;48.180;11.478;2023-06-19T18:36:32;4.38;;;4.18;;
4676;SDS011;2352;48.180;11.478;2023-06-19T18:39:35;3.97;;;3.78;;
4676;SDS011;2352;48.180;11.478;2023-06-19T18:42:39;4.72;;;4.43;;
4676;SDS011;2352;48.180;11.478;2023-06-19T18:45:44;4.10;;;3.90;;